sensor_id;sensor_type;location;lat;lon;timestamp;pressure;altitude;pressure_sealevel;temperature;humidity
2405;BME280;1213;43.206;27.922;2023-07-20T00:01:38;100664.59;;;25.44;100.00
2405;BME280;1213;43.206;27.922;2023-07-20T00:04:03;100660.25;;;25.43;100.00
2405;BME280;1213;43.206;27.922;2023-07-20T00:06:29;100658.38;;;25.44;100.00
2405;BME280;1213;43.206;27.922;2023-07-20T00:08:55;100653.63;;;25.39;100.00
2405;BME280;1213;43.206;27.922;2023-07-20T00:11:21;100653.19;;;25.36;100.00
2405;BME280;1213;43.206;27.922;2023-07-20T00:13:47;100643.00;;;25.31;100.00
2405;BME280;1213;43.206;27.922;2023-07-20T00:16:12;100648.19;;;25.26;100.00
2405;BME280;1213;43.206;27.922;2023-07-20T00:18:38;100647.72;;;25.23;100.00
2405;BME280;1213;43.206;27.922;2023-07-20T00:21:03;100644.00;;;25.17;100.00
2405;BME280;1213;43.206;27.922;2023-07-20T00:23:29;100651.00;;;25.11;100.00
2405;BME280;1213;43.206;27.922;2023-07-20T00:25:55;100651.38;;;25.08;100.00
2405;BME280;1213;43.206;27.922;2023-07-20T00:28:20;100647.25;;;25.06;100.00
2405;BME280;1213;43.206;27.922;2023-07-20T00:30:46;100657.41;;;25.10;100.00
2405;BME280;1213;43.206;27.922;2023-07-20T00:33:11;100670.88;;;25.10;100.00
2405;BME280;1213;43.206;27.922;2023-07-20T00:35:38;100658.56;;;25.01;100.00
2405;BME280;1213;43.206;27.922;2023-07-20T00:38:04;100658.56;;;25.01;100.00
2405;BME280;1213;43.206;27.922;2023-07-20T00:40:38;100652.19;;;25.02;100.00
2405;BME280;1213;43.206;27.922;2023-07-20T00:43:04;100652.75;;;24.98;100.00
2405;BME280;1213;43.206;27.922;2023-07-20T00:45:30;100640.16;;;24.98;100.00
2405;BME280;1213;43.206;27.922;2023-07-20T00:47:57;100634.34;;;25.01;100.00
2405;BME280;1213;43.206;27.922;2023-07-20T00:50:24;100642.25;;;25.03;100.00
2405;BME280;1213;43.206;27.922;2023-07-20T00:52:49;100635.03;;;25.03;100.00
2405;BME280;1213;43.206;27.922;2023-07-20T00:55:15;100641.25;;;25.04;100.00
2405;BME280;1213;43.206;27.922;2023-07-20T00:57:41;100650.50;;;25.01;100.00
2405;BME280;1213;43.206;27.922;2023-07-20T01:00:07;100657.94;;;24.99;100.00
2405;BME280;1213;43.206;27.922;2023-07-20T01:02:33;100659.97;;;24.90;100.00
2405;BME280;1213;43.206;27.922;2023-07-20T01:04:58;100653.72;;;24.83;100.00
2405;BME280;1213;43.206;27.922;2023-07-20T01:07:31;100652.25;;;24.81;100.00
2405;BME280;1213;43.206;27.922;2023-07-20T01:10:10;100650.59;;;24.80;100.00
2405;BME280;1213;43.206;27.922;2023-07-20T01:12:47;100646.38;;;24.71;100.00
2405;BME280;1213;43.206;27.922;2023-07-20T01:15:12;100646.78;;;24.68;100.00
2405;BME280;1213;43.206;27.922;2023-07-20T01:17:38;100640.78;;;24.66;100.00
2405;BME280;1213;43.206;27.922;2023-07-20T01:20:05;100635.16;;;24.60;100.00
2405;BME280;1213;43.206;27.922;2023-07-20T01:33:18;100658.41;;;24.75;100.00
2405;BME280;1213;43.206;27.922;2023-07-20T01:35:47;100665.91;;;24.86;100.00
2405;BME280;1213;43.206;27.922;2023-07-20T01:38:16;100677.94;;;24.90;100.00
2405;BME280;1213;43.206;27.922;2023-07-20T01:40:46;100674.19;;;24.84;100.00
2405;BME280;1213;43.206;27.922;2023-07-20T01:43:12;100676.28;;;24.89;100.00
2405;BME280;1213;43.206;27.922;2023-07-20T01:45:38;100693.91;;;24.98;100.00
2405;BME280;1213;43.206;27.922;2023-07-20T01:48:03;100726.97;;;24.92;100.00
2405;BME280;1213;43.206;27.922;2023-07-20T01:50:29;100743.84;;;24.79;100.00
2405;BME280;1213;43.206;27.922;2023-07-20T01:52:55;100760.56;;;24.75;100.00
2405;BME280;1213;43.206;27.922;2023-07-20T01:55:20;100767.59;;;24.54;100.00
2405;BME280;1213;43.206;27.922;2023-07-20T01:57:46;100753.28;;;24.26;100.00
2405;BME280;1213;43.206;27.922;2023-07-20T02:00:11;100748.84;;;23.97;100.00
2405;BME280;1213;43.206;27.922;2023-07-20T02:02:37;100760.63;;;23.81;100.00
2405;BME280;1213;43.206;27.922;2023-07-20T02:05:03;100749.00;;;23.74;100.00
2405;BME280;1213;43.206;27.922;2023-07-20T02:07:28;100743.63;;;23.59;100.00
2405;BME280;1213;43.206;27.922;2023-07-20T02:09:53;100746.97;;;23.61;100.00
2405;BME280;1213;43.206;27.922;2023-07-20T02:12:19;100713.63;;;23.56;100.00
2405;BME280;1213;43.206;27.922;2023-07-20T02:14:45;100728.91;;;23.55;100.00
2405;BME280;1213;43.206;27.922;2023-07-20T02:17:11;100730.75;;;23.54;100.00
2405;BME280;1213;43.206;27.922;2023-07-20T02:19:37;100706.22;;;23.58;100.00
2405;BME280;1213;43.206;27.922;2023-07-20T02:22:03;100702.38;;;23.60;100.00
2405;BME280;1213;43.206;27.922;2023-07-20T02:24:28;100696.81;;;23.62;100.00
2405;BME280;1213;43.206;27.922;2023-07-20T02:26:56;100687.63;;;23.71;100.00
2405;BME280;1213;43.206;27.922;2023-07-20T02:29:22;100687.72;;;23.77;100.00
2405;BME280;1213;43.206;27.922;2023-07-20T02:31:47;100686.13;;;23.83;100.00
2405;BME280;1213;43.206;27.922;2023-07-20T02:34:13;100677.75;;;23.93;100.00
2405;BME280;1213;43.206;27.922;2023-07-20T02:36:38;100673.91;;;24.02;100.00
2405;BME280;1213;43.206;27.922;2023-07-20T02:39:04;100670.72;;;24.13;100.00
2405;BME280;1213;43.206;27.922;2023-07-20T02:41:33;100673.28;;;24.21;100.00
2405;BME280;1213;43.206;27.922;2023-07-20T02:43:58;100669.38;;;24.24;100.00
2405;BME280;1213;43.206;27.922;2023-07-20T02:46:24;100651.84;;;24.28;100.00
2405;BME280;1213;43.206;27.922;2023-07-20T02:48:50;100660.53;;;24.30;100.00
2405;BME280;1213;43.206;27.922;2023-07-20T02:51:15;100658.25;;;24.27;100.00
2405;BME280;1213;43.206;27.922;2023-07-20T02:53:40;100652.63;;;24.22;100.00
2405;BME280;1213;43.206;27.922;2023-07-20T02:56:06;100639.44;;;24.27;100.00
2405;BME280;1213;43.206;27.922;2023-07-20T02:58:34;100637.75;;;24.19;100.00
2405;BME280;1213;43.206;27.922;2023-07-20T03:01:02;100638.75;;;24.18;100.00
2405;BME280;1213;43.206;27.922;2023-07-20T03:03:28;100638.50;;;24.13;100.00
2405;BME280;1213;43.206;27.922;2023-07-20T03:05:53;100639.34;;;24.14;100.00
2405;BME280;1213;43.206;27.922;2023-07-20T03:08:21;100634.78;;;24.14;100.00
2405;BME280;1213;43.206;27.922;2023-07-20T03:10:47;100622.75;;;24.10;100.00
2405;BME280;1213;43.206;27.922;2023-07-20T03:13:12;100614.13;;;24.15;100.00
2405;BME280;1213;43.206;27.922;2023-07-20T03:15:39;100613.72;;;24.11;100.00
2405;BME280;1213;43.206;27.922;2023-07-20T03:18:07;100602.56;;;24.14;100.00
2405;BME280;1213;43.206;27.922;2023-07-20T03:20:35;100595.59;;;24.20;100.00
2405;BME280;1213;43.206;27.922;2023-07-20T03:23:01;100590.44;;;24.18;100.00
2405;BME280;1213;43.206;27.922;2023-07-20T03:25:26;100577.69;;;24.27;100.00
2405;BME280;1213;43.206;27.922;2023-07-20T03:27:52;100572.53;;;24.32;100.00
2405;BME280;1213;43.206;27.922;2023-07-20T03:30:20;100566.22;;;24.40;100.00
2405;BME280;1213;43.206;27.922;2023-07-20T03:32:46;100557.78;;;24.43;100.00
2405;BME280;1213;43.206;27.922;2023-07-20T03:35:14;100561.50;;;24.48;100.00
2405;BME280;1213;43.206;27.922;2023-07-20T03:37:43;100549.34;;;24.52;100.00
2405;BME280;1213;43.206;27.922;2023-07-20T03:40:09;100545.47;;;24.61;100.00
2405;BME280;1213;43.206;27.922;2023-07-20T03:42:35;100534.00;;;24.81;100.00
2405;BME280;1213;43.206;27.922;2023-07-20T03:45:01;100527.19;;;24.91;100.00
2405;BME280;1213;43.206;27.922;2023-07-20T03:47:28;100513.19;;;25.03;100.00
2405;BME280;1213;43.206;27.922;2023-07-20T03:49:53;100515.09;;;25.15;100.00
2405;BME280;1213;43.206;27.922;2023-07-20T03:52:19;100506.44;;;25.27;100.00
2405;BME280;1213;43.206;27.922;2023-07-20T03:54:45;100491.13;;;25.34;100.00
2405;BME280;1213;43.206;27.922;2023-07-20T03:57:11;100477.69;;;25.40;100.00
2405;BME280;1213;43.206;27.922;2023-07-20T03:59:39;100477.06;;;25.52;100.00
2405;BME280;1213;43.206;27.922;2023-07-20T04:02:09;100481.63;;;25.64;100.00
2405;BME280;1213;43.206;27.922;2023-07-20T04:04:35;100487.66;;;25.73;100.00
2405;BME280;1213;43.206;27.922;2023-07-20T04:07:00;100503.38;;;25.69;100.00
2405;BME280;1213;43.206;27.922;2023-07-20T04:09:26;100522.03;;;25.78;100.00
2405;BME280;1213;43.206;27.922;2023-07-20T04:11:51;100529.91;;;25.86;100.00
2405;BME280;1213;43.206;27.922;2023-07-20T04:14:17;100523.47;;;25.80;100.00
2405;BME280;1213;43.206;27.922;2023-07-20T04:16:42;100528.66;;;25.82;100.00
2405;BME280;1213;43.206;27.922;2023-07-20T04:19:08;100532.59;;;25.86;100.00
2405;BME280;1213;43.206;27.922;2023-07-20T04:21:40;100532.38;;;25.87;100.00
2405;BME280;1213;43.206;27.922;2023-07-20T04:24:06;100516.84;;;25.83;100.00
2405;BME280;1213;43.206;27.922;2023-07-20T04:26:31;100507.50;;;25.92;100.00
2405;BME280;1213;43.206;27.922;2023-07-20T04:28:58;100519.75;;;25.94;100.00
2405;BME280;1213;43.206;27.922;2023-07-20T04:31:24;100526.78;;;25.82;100.00
2405;BME280;1213;43.206;27.922;2023-07-20T04:33:50;100531.13;;;25.70;100.00
2405;BME280;1213;43.206;27.922;2023-07-20T04:36:16;100523.22;;;25.68;100.00
2405;BME280;1213;43.206;27.922;2023-07-20T04:38:45;100519.09;;;25.66;100.00
2405;BME280;1213;43.206;27.922;2023-07-20T04:41:11;100537.31;;;25.57;100.00
2405;BME280;1213;43.206;27.922;2023-07-20T04:43:43;100561.09;;;25.54;100.00
2405;BME280;1213;43.206;27.922;2023-07-20T04:46:10;100577.88;;;25.49;100.00
2405;BME280;1213;43.206;27.922;2023-07-20T04:48:36;100568.56;;;25.58;100.00
2405;BME280;1213;43.206;27.922;2023-07-20T04:51:02;100582.09;;;25.71;100.00
2405;BME280;1213;43.206;27.922;2023-07-20T04:53:27;100580.03;;;25.87;100.00
2405;BME280;1213;43.206;27.922;2023-07-20T04:55:53;100576.28;;;25.88;100.00
2405;BME280;1213;43.206;27.922;2023-07-20T04:58:22;100574.66;;;26.00;100.00
2405;BME280;1213;43.206;27.922;2023-07-20T05:00:49;100577.53;;;26.18;100.00
2405;BME280;1213;43.206;27.922;2023-07-20T05:03:14;100575.44;;;26.20;100.00
2405;BME280;1213;43.206;27.922;2023-07-20T05:05:40;100577.91;;;26.28;100.00
2405;BME280;1213;43.206;27.922;2023-07-20T05:08:05;100590.38;;;26.43;100.00
2405;BME280;1213;43.206;27.922;2023-07-20T05:10:31;100590.78;;;26.46;100.00
2405;BME280;1213;43.206;27.922;2023-07-20T05:12:57;100584.16;;;26.49;100.00
2405;BME280;1213;43.206;27.922;2023-07-20T05:15:23;100596.56;;;26.50;100.00
2405;BME280;1213;43.206;27.922;2023-07-20T05:17:48;100621.44;;;26.65;100.00
2405;BME280;1213;43.206;27.922;2023-07-20T05:20:14;100646.94;;;26.69;100.00
2405;BME280;1213;43.206;27.922;2023-07-20T05:22:39;100656.91;;;26.75;100.00
2405;BME280;1213;43.206;27.922;2023-07-20T05:25:09;100646.50;;;26.86;100.00
2405;BME280;1213;43.206;27.922;2023-07-20T05:27:39;100637.31;;;27.00;100.00
2405;BME280;1213;43.206;27.922;2023-07-20T05:30:05;100651.41;;;27.02;100.00
2405;BME280;1213;43.206;27.922;2023-07-20T05:32:32;100652.88;;;26.98;100.00
2405;BME280;1213;43.206;27.922;2023-07-20T05:34:58;100636.50;;;27.06;100.00
2405;BME280;1213;43.206;27.922;2023-07-20T05:37:23;100627.97;;;27.02;100.00
2405;BME280;1213;43.206;27.922;2023-07-20T05:39:49;100626.91;;;27.03;100.00
2405;BME280;1213;43.206;27.922;2023-07-20T05:42:14;100630.66;;;27.09;100.00
2405;BME280;1213;43.206;27.922;2023-07-20T05:44:40;100620.22;;;27.26;100.00
2405;BME280;1213;43.206;27.922;2023-07-20T05:47:06;100628.50;;;27.31;100.00
2405;BME280;1213;43.206;27.922;2023-07-20T05:49:32;100631.56;;;27.41;100.00
2405;BME280;1213;43.206;27.922;2023-07-20T05:51:57;100638.22;;;27.38;100.00
2405;BME280;1213;43.206;27.922;2023-07-20T05:54:26;100644.22;;;27.41;100.00
2405;BME280;1213;43.206;27.922;2023-07-20T05:56:51;100647.53;;;27.43;100.00
2405;BME280;1213;43.206;27.922;2023-07-20T05:59:17;100650.91;;;27.38;100.00
2405;BME280;1213;43.206;27.922;2023-07-20T06:01:43;100657.13;;;27.38;100.00
2405;BME280;1213;43.206;27.922;2023-07-20T06:04:09;100650.28;;;27.36;100.00
2405;BME280;1213;43.206;27.922;2023-07-20T06:06:34;100653.00;;;27.36;100.00
2405;BME280;1213;43.206;27.922;2023-07-20T06:09:00;100656.44;;;27.50;100.00
2405;BME280;1213;43.206;27.922;2023-07-20T06:11:29;100659.28;;;27.68;100.00
2405;BME280;1213;43.206;27.922;2023-07-20T06:13:56;100667.09;;;27.83;100.00
2405;BME280;1213;43.206;27.922;2023-07-20T06:16:21;100672.34;;;28.03;100.00
2405;BME280;1213;43.206;27.922;2023-07-20T06:18:46;100671.91;;;28.37;100.00
2405;BME280;1213;43.206;27.922;2023-07-20T06:21:12;100671.72;;;28.57;100.00
2405;BME280;1213;43.206;27.922;2023-07-20T06:23:38;100664.28;;;28.71;100.00
2405;BME280;1213;43.206;27.922;2023-07-20T06:26:03;100678.91;;;28.88;100.00
2405;BME280;1213;43.206;27.922;2023-07-20T06:28:28;100673.16;;;28.78;100.00
2405;BME280;1213;43.206;27.922;2023-07-20T06:31:02;100669.09;;;28.69;100.00
2405;BME280;1213;43.206;27.922;2023-07-20T06:33:28;100682.91;;;28.61;100.00
2405;BME280;1213;43.206;27.922;2023-07-20T06:35:53;100676.75;;;28.54;100.00
2405;BME280;1213;43.206;27.922;2023-07-20T06:38:19;100676.91;;;28.59;100.00
2405;BME280;1213;43.206;27.922;2023-07-20T06:40:48;100684.56;;;28.62;100.00
2405;BME280;1213;43.206;27.922;2023-07-20T06:43:13;100681.56;;;28.70;100.00
2405;BME280;1213;43.206;27.922;2023-07-20T06:45:39;100677.16;;;28.75;100.00
2405;BME280;1213;43.206;27.922;2023-07-20T06:48:04;100683.63;;;28.74;100.00
2405;BME280;1213;43.206;27.922;2023-07-20T06:50:30;100676.69;;;28.79;100.00
2405;BME280;1213;43.206;27.922;2023-07-20T06:52:55;100677.53;;;28.79;100.00
2405;BME280;1213;43.206;27.922;2023-07-20T06:55:21;100673.22;;;28.71;100.00
2405;BME280;1213;43.206;27.922;2023-07-20T06:57:46;100659.94;;;28.70;100.00
2405;BME280;1213;43.206;27.922;2023-07-20T07:00:14;100655.59;;;28.69;100.00
2405;BME280;1213;43.206;27.922;2023-07-20T07:02:40;100641.38;;;28.55;100.00
2405;BME280;1213;43.206;27.922;2023-07-20T07:05:05;100630.19;;;28.52;100.00
2405;BME280;1213;43.206;27.922;2023-07-20T07:07:31;100629.59;;;28.50;100.00
2405;BME280;1213;43.206;27.922;2023-07-20T07:09:57;100631.28;;;27.56;100.00
2405;BME280;1213;43.206;27.922;2023-07-20T07:12:23;100612.84;;;27.08;100.00
2405;BME280;1213;43.206;27.922;2023-07-20T07:14:48;100609.06;;;27.16;100.00
2405;BME280;1213;43.206;27.922;2023-07-20T07:17:14;100600.03;;;27.35;100.00
2405;BME280;1213;43.206;27.922;2023-07-20T07:19:39;100597.81;;;27.57;100.00
2405;BME280;1213;43.206;27.922;2023-07-20T07:22:06;100595.31;;;27.93;100.00
2405;BME280;1213;43.206;27.922;2023-07-20T07:24:31;100584.88;;;28.22;100.00
2405;BME280;1213;43.206;27.922;2023-07-20T07:27:02;100583.97;;;28.53;100.00
2405;BME280;1213;43.206;27.922;2023-07-20T07:29:28;100578.56;;;28.90;100.00
2405;BME280;1213;43.206;27.922;2023-07-20T07:31:54;100613.69;;;28.96;100.00
2405;BME280;1213;43.206;27.922;2023-07-20T07:34:20;100629.63;;;29.05;100.00
2405;BME280;1213;43.206;27.922;2023-07-20T07:36:45;100640.53;;;28.98;100.00
2405;BME280;1213;43.206;27.922;2023-07-20T07:39:13;100645.88;;;29.05;100.00
2405;BME280;1213;43.206;27.922;2023-07-20T07:41:39;100644.50;;;29.14;100.00
2405;BME280;1213;43.206;27.922;2023-07-20T07:44:04;100630.81;;;29.09;100.00
2405;BME280;1213;43.206;27.922;2023-07-20T07:46:30;100641.03;;;29.25;100.00
2405;BME280;1213;43.206;27.922;2023-07-20T07:48:57;100638.78;;;29.22;100.00
2405;BME280;1213;43.206;27.922;2023-07-20T07:51:24;100637.72;;;29.23;100.00
2405;BME280;1213;43.206;27.922;2023-07-20T07:53:49;100632.31;;;29.23;100.00
2405;BME280;1213;43.206;27.922;2023-07-20T07:56:15;100629.28;;;29.31;100.00
2405;BME280;1213;43.206;27.922;2023-07-20T07:58:41;100619.75;;;29.28;100.00
2405;BME280;1213;43.206;27.922;2023-07-20T08:01:07;100633.94;;;29.24;100.00
2405;BME280;1213;43.206;27.922;2023-07-20T08:03:32;100630.22;;;29.25;100.00
2405;BME280;1213;43.206;27.922;2023-07-20T08:05:59;100632.25;;;29.11;100.00
2405;BME280;1213;43.206;27.922;2023-07-20T08:08:26;100628.41;;;28.82;100.00
2405;BME280;1213;43.206;27.922;2023-07-20T08:10:55;100611.44;;;28.93;100.00
2405;BME280;1213;43.206;27.922;2023-07-20T08:13:21;100613.38;;;29.05;100.00
2405;BME280;1213;43.206;27.922;2023-07-20T08:15:50;100619.88;;;29.04;100.00
2405;BME280;1213;43.206;27.922;2023-07-20T08:18:17;100623.41;;;29.04;100.00
2405;BME280;1213;43.206;27.922;2023-07-20T08:20:46;100623.16;;;29.06;100.00
2405;BME280;1213;43.206;27.922;2023-07-20T08:23:14;100623.88;;;29.31;100.00
2405;BME280;1213;43.206;27.922;2023-07-20T08:25:39;100630.84;;;29.39;100.00
2405;BME280;1213;43.206;27.922;2023-07-20T08:28:09;100617.53;;;29.55;100.00
2405;BME280;1213;43.206;27.922;2023-07-20T08:30:43;100621.25;;;29.84;100.00
2405;BME280;1213;43.206;27.922;2023-07-20T08:33:10;100626.53;;;30.09;100.00
2405;BME280;1213;43.206;27.922;2023-07-20T08:35:36;100611.22;;;30.38;100.00
2405;BME280;1213;43.206;27.922;2023-07-20T08:38:02;100616.28;;;30.23;100.00
2405;BME280;1213;43.206;27.922;2023-07-20T08:40:33;100614.97;;;30.37;100.00
2405;BME280;1213;43.206;27.922;2023-07-20T08:43:00;100627.59;;;30.55;100.00
2405;BME280;1213;43.206;27.922;2023-07-20T08:45:27;100628.31;;;30.62;100.00
2405;BME280;1213;43.206;27.922;2023-07-20T08:47:56;100612.47;;;30.94;100.00
2405;BME280;1213;43.206;27.922;2023-07-20T08:50:22;100621.31;;;30.90;100.00
2405;BME280;1213;43.206;27.922;2023-07-20T08:52:51;100617.31;;;30.81;100.00
2405;BME280;1213;43.206;27.922;2023-07-20T08:55:18;100611.56;;;30.54;100.00
2405;BME280;1213;43.206;27.922;2023-07-20T08:57:46;100609.78;;;30.36;100.00
2405;BME280;1213;43.206;27.922;2023-07-20T09:00:13;100604.25;;;30.31;100.00
2405;BME280;1213;43.206;27.922;2023-07-20T09:02:39;100609.88;;;30.53;100.00
2405;BME280;1213;43.206;27.922;2023-07-20T09:05:08;100604.25;;;30.54;100.00
2405;BME280;1213;43.206;27.922;2023-07-20T09:07:35;100605.53;;;30.75;100.00
2405;BME280;1213;43.206;27.922;2023-07-20T09:10:01;100604.72;;;30.63;100.00
2405;BME280;1213;43.206;27.922;2023-07-20T09:12:37;100600.84;;;30.47;100.00
2405;BME280;1213;43.206;27.922;2023-07-20T09:15:04;100605.31;;;30.53;100.00
2405;BME280;1213;43.206;27.922;2023-07-20T09:17:30;100596.69;;;30.68;100.00
2405;BME280;1213;43.206;27.922;2023-07-20T09:19:57;100597.75;;;30.67;100.00
2405;BME280;1213;43.206;27.922;2023-07-20T09:22:30;100591.75;;;30.77;100.00
2405;BME280;1213;43.206;27.922;2023-07-20T09:24:57;100589.22;;;30.87;98.91
2405;BME280;1213;43.206;27.922;2023-07-20T09:27:22;100579.06;;;30.94;97.19
2405;BME280;1213;43.206;27.922;2023-07-20T09:29:54;100580.56;;;31.02;96.25
2405;BME280;1213;43.206;27.922;2023-07-20T09:32:21;100586.81;;;31.02;95.63
2405;BME280;1213;43.206;27.922;2023-07-20T09:34:47;100581.16;;;31.04;93.84
2405;BME280;1213;43.206;27.922;2023-07-20T09:37:20;100578.19;;;31.05;94.97
2405;BME280;1213;43.206;27.922;2023-07-20T09:39:46;100578.19;;;31.05;94.75
2405;BME280;1213;43.206;27.922;2023-07-20T09:42:17;100567.44;;;31.10;93.95
2405;BME280;1213;43.206;27.922;2023-07-20T09:44:44;100576.72;;;31.26;93.43
2405;BME280;1213;43.206;27.922;2023-07-20T09:47:12;100566.09;;;31.53;93.15
2405;BME280;1213;43.206;27.922;2023-07-20T09:49:41;100560.00;;;31.63;92.83
2405;BME280;1213;43.206;27.922;2023-07-20T09:52:09;100567.41;;;31.67;91.46
2405;BME280;1213;43.206;27.922;2023-07-20T09:54:38;100548.00;;;31.75;92.00
2405;BME280;1213;43.206;27.922;2023-07-20T09:57:07;100553.94;;;31.89;90.39
2405;BME280;1213;43.206;27.922;2023-07-20T09:59:34;100557.47;;;32.07;85.53
2405;BME280;1213;43.206;27.922;2023-07-20T10:02:01;100550.53;;;32.33;83.77
2405;BME280;1213;43.206;27.922;2023-07-20T10:04:29;100537.25;;;32.36;81.69
2405;BME280;1213;43.206;27.922;2023-07-20T10:06:55;100549.44;;;32.34;82.79
2405;BME280;1213;43.206;27.922;2023-07-20T10:09:25;100545.88;;;32.50;81.06
2405;BME280;1213;43.206;27.922;2023-07-20T10:11:52;100530.16;;;32.57;81.79
2405;BME280;1213;43.206;27.922;2023-07-20T10:14:20;100539.81;;;32.87;79.84
2405;BME280;1213;43.206;27.922;2023-07-20T10:16:58;100530.47;;;33.31;79.47
2405;BME280;1213;43.206;27.922;2023-07-20T10:19:43;100533.88;;;33.76;77.76
2405;BME280;1213;43.206;27.922;2023-07-20T10:22:19;100521.16;;;33.86;75.53
2405;BME280;1213;43.206;27.922;2023-07-20T10:24:46;100523.69;;;33.98;75.90
2405;BME280;1213;43.206;27.922;2023-07-20T10:27:12;100519.69;;;34.11;75.15
2405;BME280;1213;43.206;27.922;2023-07-20T10:29:40;100517.09;;;34.31;74.45
2405;BME280;1213;43.206;27.922;2023-07-20T10:32:06;100525.53;;;34.30;73.85
2405;BME280;1213;43.206;27.922;2023-07-20T10:34:33;100518.78;;;33.95;100.00
2405;BME280;1213;43.206;27.922;2023-07-20T10:36:59;100521.66;;;33.19;100.00
2405;BME280;1213;43.206;27.922;2023-07-20T10:39:28;100515.47;;;33.02;100.00
2405;BME280;1213;43.206;27.922;2023-07-20T10:42:00;100517.69;;;33.05;86.40
2405;BME280;1213;43.206;27.922;2023-07-20T10:44:27;100521.69;;;33.24;82.63
2405;BME280;1213;43.206;27.922;2023-07-20T10:46:59;100513.56;;;33.29;100.00
2405;BME280;1213;43.206;27.922;2023-07-20T10:49:26;100513.19;;;32.72;100.00
2405;BME280;1213;43.206;27.922;2023-07-20T10:51:59;100510.94;;;32.25;100.00
2405;BME280;1213;43.206;27.922;2023-07-20T10:56:55;100511.78;;;32.42;100.00
2405;BME280;1213;43.206;27.922;2023-07-20T11:01:56;100514.00;;;32.12;100.00
2405;BME280;1213;43.206;27.922;2023-07-20T11:07:03;100489.97;;;32.20;100.00
2405;BME280;1213;43.206;27.922;2023-07-20T11:09:34;100490.63;;;32.11;100.00
2405;BME280;1213;43.206;27.922;2023-07-20T11:14:40;100487.03;;;32.44;100.00
2405;BME280;1213;43.206;27.922;2023-07-20T11:17:13;100478.44;;;32.57;100.00
2405;BME280;1213;43.206;27.922;2023-07-20T11:19:39;100483.94;;;32.18;100.00
2405;BME280;1213;43.206;27.922;2023-07-20T11:22:06;100474.94;;;32.18;100.00
2405;BME280;1213;43.206;27.922;2023-07-20T11:24:38;100465.72;;;32.36;100.00
2405;BME280;1213;43.206;27.922;2023-07-20T11:27:05;100468.28;;;32.47;100.00
2405;BME280;1213;43.206;27.922;2023-07-20T11:29:32;100475.50;;;32.37;100.00
2405;BME280;1213;43.206;27.922;2023-07-20T11:31:57;100466.53;;;32.19;100.00
2405;BME280;1213;43.206;27.922;2023-07-20T11:34:26;100464.41;;;32.21;100.00
2405;BME280;1213;43.206;27.922;2023-07-20T11:36:53;100459.69;;;31.95;100.00
2405;BME280;1213;43.206;27.922;2023-07-20T11:39:20;100459.94;;;31.76;100.00
2405;BME280;1213;43.206;27.922;2023-07-20T11:41:51;100451.78;;;31.93;100.00
2405;BME280;1213;43.206;27.922;2023-07-20T11:44:17;100463.00;;;31.97;100.00
2405;BME280;1213;43.206;27.922;2023-07-20T11:46:44;100448.25;;;31.93;100.00
2405;BME280;1213;43.206;27.922;2023-07-20T11:49:10;100451.97;;;31.70;100.00
2405;BME280;1213;43.206;27.922;2023-07-20T11:51:36;100446.34;;;31.76;100.00
2405;BME280;1213;43.206;27.922;2023-07-20T11:54:04;100442.34;;;31.79;100.00
2405;BME280;1213;43.206;27.922;2023-07-20T11:56:30;100468.69;;;31.45;100.00
2405;BME280;1213;43.206;27.922;2023-07-20T11:58:57;100461.72;;;31.20;100.00
2405;BME280;1213;43.206;27.922;2023-07-20T12:01:24;100468.34;;;31.58;100.00
2405;BME280;1213;43.206;27.922;2023-07-20T12:03:51;100459.38;;;31.91;100.00
2405;BME280;1213;43.206;27.922;2023-07-20T12:06:16;100464.13;;;32.01;100.00
2405;BME280;1213;43.206;27.922;2023-07-20T12:08:43;100453.78;;;31.81;100.00
2405;BME280;1213;43.206;27.922;2023-07-20T12:11:10;100450.88;;;31.88;100.00
2405;BME280;1213;43.206;27.922;2023-07-20T12:13:42;100452.94;;;31.81;100.00
2405;BME280;1213;43.206;27.922;2023-07-20T12:16:15;100446.53;;;31.53;100.00
2405;BME280;1213;43.206;27.922;2023-07-20T12:18:42;100451.78;;;31.76;100.00
2405;BME280;1213;43.206;27.922;2023-07-20T12:21:08;100449.06;;;31.76;100.00
2405;BME280;1213;43.206;27.922;2023-07-20T12:23:39;100438.94;;;31.89;100.00
2405;BME280;1213;43.206;27.922;2023-07-20T12:26:09;100420.94;;;32.05;100.00
2405;BME280;1213;43.206;27.922;2023-07-20T12:28:41;100420.81;;;32.16;100.00
2405;BME280;1213;43.206;27.922;2023-07-20T12:31:08;100425.97;;;32.35;100.00
2405;BME280;1213;43.206;27.922;2023-07-20T12:33:35;100423.53;;;32.16;100.00
2405;BME280;1213;43.206;27.922;2023-07-20T12:36:01;100433.63;;;32.38;100.00
2405;BME280;1213;43.206;27.922;2023-07-20T12:38:27;100428.69;;;32.35;100.00
2405;BME280;1213;43.206;27.922;2023-07-20T12:41:01;100426.00;;;32.40;100.00
2405;BME280;1213;43.206;27.922;2023-07-20T12:43:26;100428.03;;;32.49;100.00
2405;BME280;1213;43.206;27.922;2023-07-20T12:45:52;100423.53;;;32.60;100.00
2405;BME280;1213;43.206;27.922;2023-07-20T12:48:18;100420.34;;;32.68;100.00
2405;BME280;1213;43.206;27.922;2023-07-20T12:50:43;100426.19;;;32.55;100.00
2405;BME280;1213;43.206;27.922;2023-07-20T12:53:09;100429.38;;;32.47;100.00
2405;BME280;1213;43.206;27.922;2023-07-20T12:55:34;100416.94;;;32.56;100.00
2405;BME280;1213;43.206;27.922;2023-07-20T12:57:59;100426.31;;;32.65;100.00
2405;BME280;1213;43.206;27.922;2023-07-20T13:00:25;100421.09;;;32.64;100.00
2405;BME280;1213;43.206;27.922;2023-07-20T13:02:51;100417.72;;;32.78;100.00
2405;BME280;1213;43.206;27.922;2023-07-20T13:05:18;100419.00;;;32.71;100.00
2405;BME280;1213;43.206;27.922;2023-07-20T13:07:43;100419.53;;;32.68;100.00
2405;BME280;1213;43.206;27.922;2023-07-20T13:10:10;100431.31;;;32.73;100.00